Time;durP1;ratioP1;P1;durP2;ratioP2;P2;SDS_P1;SDS_P2;PMS_P1;PMS_P2;Temp;Humidity;BMP_temperature;BMP_pressure;BME280_temperature;BME280_humidity;BME280_pressure;Samples;Min_cycle;Max_cycle;Signal;HPM_P1;HPM_P2
2023/07/06 00:00:25;;;;;;;4.50;2.00;;;15.90;99.90;;;;;;4154666;28;20571;-74
2023/07/06 00:02:28;;;;;;;3.53;1.90;;;15.80;99.90;;;;;;4161184;28;20302;-74
2023/07/06 00:04:30;;;;;;;3.67;1.90;;;15.80;99.90;;;;;;4154575;28;20586;-74
2023/07/06 00:06:32;;;;;;;4.17;2.00;;;15.80;99.90;;;;;;4162233;28;20331;-73
2023/07/06 00:08:34;;;;;;;3.87;2.17;;;15.70;99.90;;;;;;4159958;28;20585;-74
2023/07/06 00:10:38;;;;;;;5.30;1.97;;;15.70;99.90;;;;;;4167937;28;20295;-74
2023/07/06 00:12:43;;;;;;;6.90;2.10;;;15.70;99.90;;;;;;4156644;28;20219;-74
2023/07/06 00:14:47;;;;;;;7.17;1.83;;;15.60;99.90;;;;;;4166447;28;20250;-74
2023/07/06 00:17:10;;;;;;;4.30;2.13;;;15.60;99.90;;;;;;4152971;28;20685;-73
2023/07/06 00:19:19;;;;;;;3.30;1.87;;;15.60;99.90;;;;;;4158197;28;20211;-74
2023/07/06 00:21:20;;;;;;;3.97;1.93;;;15.50;99.90;;;;;;4157263;28;20244;-74
2023/07/06 00:23:23;;;;;;;4.97;2.10;;;15.50;99.90;;;;;;4154545;28;20302;-74
2023/07/06 00:25:26;;;;;;;4.10;2.10;;;15.50;99.90;;;;;;4154934;28;20230;-74
2023/07/06 00:27:31;;;;;;;4.47;2.30;;;15.40;99.90;;;;;;4154311;28;20649;-75
2023/07/06 00:29:35;;;;;;;3.73;1.67;;;15.40;99.90;;;;;;4157699;28;20214;-75
2023/07/06 00:31:51;;;;;;;5.30;2.10;;;15.30;99.90;;;;;;4153419;28;20753;-75
2023/07/06 00:33:53;;;;;;;4.43;2.00;;;15.30;99.90;;;;;;4151575;28;20353;-75
2023/07/06 00:35:54;;;;;;;4.80;1.80;;;15.20;99.90;;;;;;4157512;28;20218;-75
2023/07/06 00:37:59;;;;;;;3.77;2.13;;;15.30;99.90;;;;;;4158624;28;20242;-75
2023/07/06 00:40:07;;;;;;;3.53;2.07;;;15.20;99.90;;;;;;4157632;28;20212;-75
2023/07/06 00:42:17;;;;;;;4.27;2.10;;;15.20;99.90;;;;;;4157472;28;20253;-75
2023/07/06 00:44:48;;;;;;;4.57;2.23;;;15.20;99.90;;;;;;4150614;28;20207;-75
2023/07/06 00:46:51;;;;;;;3.67;1.70;;;15.20;99.90;;;;;;4155595;28;20702;-75
2023/07/06 00:48:55;;;;;;;5.87;2.53;;;15.10;99.90;;;;;;4153440;28;20301;-75
2023/07/06 00:51:04;;;;;;;4.73;1.87;;;15.10;99.90;;;;;;4152314;28;20748;-75
2023/07/06 00:53:10;;;;;;;5.93;2.50;;;15.00;99.90;;;;;;4154942;28;20559;-75
2023/07/06 00:55:17;;;;;;;4.23;2.20;;;15.00;99.90;;;;;;4158439;28;20220;-75
2023/07/06 00:57:21;;;;;;;3.63;2.20;;;15.00;99.90;;;;;;4154661;28;20236;-75
2023/07/06 00:59:26;;;;;;;4.10;2.10;;;15.00;99.90;;;;;;4158214;28;20218;-75
2023/07/06 01:01:28;;;;;;;3.90;2.10;;;15.00;99.90;;;;;;4155214;28;20212;-75
2023/07/06 01:03:32;;;;;;;4.10;2.13;;;15.00;99.90;;;;;;4154227;28;20685;-75
2023/07/06 01:05:34;;;;;;;6.10;2.40;;;15.00;99.90;;;;;;4154833;28;20202;-75
2023/07/06 01:07:40;;;;;;;4.60;2.07;;;14.90;99.90;;;;;;4154596;28;20257;-75
2023/07/06 01:09:43;;;;;;;4.17;1.93;;;14.90;99.90;;;;;;4153889;28;20209;-75
2023/07/06 01:11:45;;;;;;;4.43;2.20;;;14.90;99.90;;;;;;4156393;28;20259;-75
2023/07/06 01:13:51;;;;;;;5.03;2.13;;;14.90;99.90;;;;;;4154167;28;20301;-74
2023/07/06 01:16:01;;;;;;;3.63;2.07;;;14.80;99.90;;;;;;4160364;28;20213;-74
2023/07/06 01:18:10;;;;;;;4.17;2.17;;;14.90;99.90;;;;;;4155313;28;20204;-74
2023/07/06 01:20:25;;;;;;;5.47;2.47;;;14.80;99.90;;;;;;4158190;28;20285;-74
2023/07/06 01:22:56;;;;;;;9.53;2.43;;;14.80;99.90;;;;;;4154582;28;20708;-74
2023/07/06 01:25:16;;;;;;;4.90;2.00;;;14.80;99.90;;;;;;4154623;28;20210;-75
2023/07/06 01:27:38;;;;;;;3.77;2.17;;;14.80;99.90;;;;;;4152512;28;20228;-74
2023/07/06 01:30:13;;;;;;;5.57;2.27;;;14.70;99.90;;;;;;4151606;28;20204;-74
2023/07/06 01:32:21;;;;;;;4.73;1.97;;;14.70;99.90;;;;;;4232298;22;20287;-81
2023/07/06 01:34:32;;;;;;;5.43;2.20;;;14.70;99.90;;;;;;4199756;28;20253;-79
2023/07/06 01:36:41;;;;;;;5.90;2.40;;;14.70;99.90;;;;;;4202509;28;20207;-79
2023/07/06 01:38:43;;;;;;;4.10;1.87;;;14.60;99.90;;;;;;4202507;28;20216;-80
2023/07/06 01:40:45;;;;;;;5.00;1.93;;;14.60;99.90;;;;;;4200531;28;20234;-79
2023/07/06 01:42:47;;;;;;;4.57;1.93;;;14.60;99.90;;;;;;4202240;28;20212;-79
2023/07/06 01:44:47;;;;;;;2.90;1.73;;;14.60;99.90;;;;;;4201402;28;20219;-78
2023/07/06 01:46:53;;;;;;;3.70;2.00;;;14.60;99.90;;;;;;4202613;28;20204;-79
2023/07/06 01:48:57;;;;;;;5.03;1.83;;;14.60;99.90;;;;;;4201602;28;20222;-80
2023/07/06 01:51:11;;;;;;;3.60;1.63;;;14.50;99.90;;;;;;4194475;28;20752;-79
2023/07/06 01:53:20;;;;;;;3.23;1.80;;;14.50;99.90;;;;;;4198992;28;20217;-80
2023/07/06 01:55:27;;;;;;;5.83;2.10;;;14.50;99.90;;;;;;4199737;28;20221;-79
2023/07/06 01:57:34;;;;;;;3.17;2.10;;;14.40;99.90;;;;;;4199058;28;20306;-79
2023/07/06 01:59:39;;;;;;;5.30;2.10;;;14.40;99.90;;;;;;4191792;28;20208;-81
2023/07/06 02:01:46;;;;;;;3.07;1.80;;;14.40;99.90;;;;;;4199232;28;20234;-80
2023/07/06 02:03:50;;;;;;;5.60;2.17;;;14.40;99.90;;;;;;4192900;28;20222;-80
2023/07/06 02:05:54;;;;;;;7.40;2.10;;;14.30;99.90;;;;;;4199270;28;20205;-80
2023/07/06 02:07:56;;;;;;;4.53;2.10;;;14.30;99.90;;;;;;4197250;28;20247;-80
2023/07/06 02:09:58;;;;;;;3.93;1.80;;;14.30;99.90;;;;;;4198929;28;20657;-80
2023/07/06 02:12:00;;;;;;;4.33;1.70;;;14.20;99.90;;;;;;4198311;28;20238;-80
2023/07/06 02:14:02;;;;;;;4.53;2.30;;;14.20;99.90;;;;;;4200104;28;20300;-80
2023/07/06 02:16:05;;;;;;;3.33;1.70;;;14.20;99.90;;;;;;4200913;28;20237;-80
2023/07/06 02:18:07;;;;;;;3.40;1.93;;;14.10;99.90;;;;;;4200529;28;20218;-80
2023/07/06 02:20:11;;;;;;;3.53;1.73;;;14.10;99.90;;;;;;4199944;28;20311;-80
2023/07/06 02:22:16;;;;;;;3.13;2.00;;;14.10;99.90;;;;;;4198151;28;20230;-80
2023/07/06 02:24:18;;;;;;;5.23;1.90;;;14.10;99.90;;;;;;4200023;28;20220;-80
2023/07/06 02:26:20;;;;;;;2.93;1.67;;;14.10;99.90;;;;;;4200165;28;20210;-80
2023/07/06 02:28:22;;;;;;;3.00;1.83;;;14.10;99.90;;;;;;4199759;28;20246;-79
2023/07/06 02:30:24;;;;;;;3.97;2.07;;;14.10;99.90;;;;;;4199901;28;20236;-80
2023/07/06 02:32:27;;;;;;;3.27;1.90;;;14.10;99.90;;;;;;4200452;28;20624;-80
2023/07/06 02:34:29;;;;;;;4.43;2.00;;;14.10;99.90;;;;;;4196362;28;20210;-79
2023/07/06 02:36:31;;;;;;;3.37;1.87;;;14.10;99.90;;;;;;4199784;28;20303;-80
2023/07/06 02:38:36;;;;;;;3.73;1.90;;;14.00;99.90;;;;;;4199131;28;20659;-80
2023/07/06 02:40:39;;;;;;;5.53;2.10;;;14.00;99.90;;;;;;4197236;28;20205;-80
2023/07/06 02:42:41;;;;;;;4.00;2.10;;;14.00;99.90;;;;;;4199121;28;20210;-80
2023/07/06 02:44:43;;;;;;;3.83;2.00;;;14.00;99.90;;;;;;4195628;28;20641;-79
2023/07/06 02:46:45;;;;;;;4.07;1.90;;;14.00;99.90;;;;;;4196899;28;20211;-79
2023/07/06 02:48:47;;;;;;;2.93;1.80;;;13.90;99.90;;;;;;4198629;28;20910;-80
2023/07/06 02:50:50;;;;;;;4.90;1.70;;;13.90;99.90;;;;;;4200673;28;20228;-80
2023/07/06 02:52:52;;;;;;;4.97;1.87;;;13.90;99.90;;;;;;4198595;28;20574;-80
2023/07/06 02:54:55;;;;;;;3.70;2.10;;;13.90;99.90;;;;;;4199762;28;20240;-81
2023/07/06 02:56:57;;;;;;;3.93;1.90;;;13.90;99.90;;;;;;4199652;28;20242;-81
2023/07/06 02:58:59;;;;;;;4.37;2.00;;;13.90;99.90;;;;;;4200391;28;20244;-80
2023/07/06 03:01:01;;;;;;;3.73;1.90;;;13.90;99.90;;;;;;4199697;28;20226;-80
2023/07/06 03:03:03;;;;;;;2.87;2.00;;;13.90;99.90;;;;;;4200413;28;20825;-80
2023/07/06 03:05:06;;;;;;;4.07;2.20;;;14.00;99.90;;;;;;4199055;28;20220;-80
2023/07/06 03:07:09;;;;;;;3.60;1.60;;;13.90;99.90;;;;;;4200284;28;20532;-80
2023/07/06 03:09:11;;;;;;;3.27;1.97;;;13.90;99.90;;;;;;4200260;28;20211;-80
2023/07/06 03:11:16;;;;;;;4.80;1.93;;;13.90;99.90;;;;;;4199655;28;20258;-80
2023/07/06 03:13:18;;;;;;;4.23;1.90;;;13.90;99.90;;;;;;4199802;28;20671;-80
2023/07/06 03:15:20;;;;;;;4.33;1.60;;;13.70;99.90;;;;;;4199494;28;20301;-80
2023/07/06 03:17:21;;;;;;;6.07;1.83;;;13.90;99.90;;;;;;4200265;28;20700;-81
2023/07/06 03:19:23;;;;;;;3.37;2.03;;;13.90;99.90;;;;;;4199395;28;20829;-80
2023/07/06 03:21:25;;;;;;;5.60;1.80;;;13.90;99.90;;;;;;4199946;28;20314;-80
2023/07/06 03:23:28;;;;;;;2.87;1.70;;;13.90;99.90;;;;;;4199470;28;20212;-80
2023/07/06 03:25:30;;;;;;;4.30;2.10;;;13.80;99.90;;;;;;4199329;28;20215;-80
2023/07/06 03:27:36;;;;;;;2.93;1.97;;;13.80;99.90;;;;;;4197623;28;20244;-80
2023/07/06 03:29:38;;;;;;;4.20;2.03;;;13.80;99.90;;;;;;4198851;28;20226;-80
2023/07/06 03:31:40;;;;;;;6.77;1.97;;;13.80;99.90;;;;;;4195421;28;20240;-80
2023/07/06 03:33:43;;;;;;;3.53;2.10;;;13.80;99.90;;;;;;4199952;28;20245;-81
2023/07/06 03:35:45;;;;;;;5.33;1.93;;;13.80;99.90;;;;;;4200399;28;20222;-80
2023/07/06 03:37:47;;;;;;;2.87;1.83;;;13.70;99.90;;;;;;4200933;28;20306;-80
2023/07/06 03:39:49;;;;;;;3.67;2.07;;;13.80;99.90;;;;;;4197985;28;20209;-80
2023/07/06 03:41:51;;;;;;;2.77;1.90;;;13.70;99.90;;;;;;4198917;28;20261;-80
2023/07/06 03:43:58;;;;;;;4.03;2.03;;;13.70;99.90;;;;;;4198278;28;20214;-80
2023/07/06 03:46:03;;;;;;;3.50;1.90;;;13.70;99.90;;;;;;4195531;28;20202;-79
2023/07/06 03:48:05;;;;;;;3.50;2.00;;;13.70;99.90;;;;;;4197674;28;20259;-79
2023/07/06 03:50:09;;;;;;;2.57;1.60;;;13.70;99.90;;;;;;4196588;28;20233;-80
2023/07/06 03:52:17;;;;;;;2.47;1.70;;;13.70;99.90;;;;;;4190003;28;20225;-80
2023/07/06 03:54:18;;;;;;;3.97;1.63;;;13.70;99.90;;;;;;4198230;28;20220;-79
2023/07/06 03:56:27;;;;;;;3.03;1.73;;;13.70;99.90;;;;;;4198264;28;20297;-80
2023/07/06 03:58:29;;;;;;;6.10;1.60;;;13.70;99.90;;;;;;4198259;28;20217;-80
2023/07/06 04:00:34;;;;;;;3.87;1.70;;;13.70;99.90;;;;;;4197161;28;20214;-78
2023/07/06 04:02:36;;;;;;;3.77;1.83;;;13.70;99.90;;;;;;4196210;28;20259;-80
2023/07/06 04:04:38;;;;;;;2.83;1.80;;;13.70;99.90;;;;;;4195586;28;20210;-79
2023/07/06 04:06:41;;;;;;;3.17;1.70;;;13.70;99.90;;;;;;4198450;28;20263;-79
2023/07/06 04:08:43;;;;;;;4.90;2.37;;;13.70;99.90;;;;;;4198123;28;20240;-79
2023/07/06 04:10:45;;;;;;;3.10;1.87;;;13.70;99.90;;;;;;4195471;28;20313;-79
2023/07/06 04:12:48;;;;;;;6.27;2.20;;;13.70;99.90;;;;;;4197255;28;20225;-80
2023/07/06 04:14:50;;;;;;;4.40;2.30;;;13.70;99.90;;;;;;4196938;28;20233;-81
2023/07/06 04:16:54;;;;;;;4.87;1.90;;;13.70;99.90;;;;;;4195194;28;20210;-79
2023/07/06 04:18:56;;;;;;;4.30;2.30;;;13.80;99.90;;;;;;4199700;28;20214;-79
2023/07/06 04:21:00;;;;;;;3.33;2.00;;;13.70;99.90;;;;;;4205075;28;20242;-80
2023/07/06 04:23:02;;;;;;;3.93;2.37;;;13.80;99.90;;;;;;4204224;28;20212;-81
2023/07/06 04:25:07;;;;;;;5.03;2.00;;;13.80;99.90;;;;;;4206062;28;20216;-81
2023/07/06 04:27:08;;;;;;;5.67;1.90;;;13.80;99.90;;;;;;4202663;28;20805;-79
2023/07/06 04:29:10;;;;;;;3.57;1.70;;;13.80;99.90;;;;;;4201327;28;20324;-79
2023/07/06 04:31:14;;;;;;;2.63;1.60;;;13.80;99.90;;;;;;4202556;28;20260;-80
2023/07/06 04:33:20;;;;;;;2.33;1.33;;;13.80;99.90;;;;;;4202720;28;20288;-81
2023/07/06 04:35:23;;;;;;;2.47;1.43;;;13.90;99.90;;;;;;4200722;28;20705;-80
2023/07/06 04:37:25;;;;;;;2.30;1.63;;;13.90;99.90;;;;;;4199556;28;20200;-80
2023/07/06 04:39:27;;;;;;;3.60;1.80;;;13.80;99.90;;;;;;4203124;28;20210;-81
2023/07/06 04:41:30;;;;;;;3.77;1.70;;;13.90;99.90;;;;;;4201898;28;20227;-81
2023/07/06 04:43:31;;;;;;;3.93;1.90;;;13.90;99.90;;;;;;4205338;28;20232;-81
2023/07/06 04:45:33;;;;;;;3.37;1.77;;;13.90;99.90;;;;;;4203939;28;20233;-80
2023/07/06 04:47:35;;;;;;;3.80;1.90;;;13.90;99.90;;;;;;4196583;28;20255;-82
2023/07/06 04:49:39;;;;;;;4.17;2.33;;;13.90;99.90;;;;;;4210589;28;20203;-81
2023/07/06 04:51:41;;;;;;;3.47;1.80;;;13.90;99.90;;;;;;4213807;28;20227;-81
2023/07/06 04:53:43;;;;;;;5.40;1.90;;;13.90;99.90;;;;;;4215264;28;20221;-81
2023/07/06 04:55:46;;;;;;;3.43;1.73;;;13.90;99.90;;;;;;4214590;28;20195;-82
2023/07/06 04:57:49;;;;;;;4.40;1.70;;;14.00;99.90;;;;;;4209382;28;20244;-81
2023/07/06 04:59:51;;;;;;;2.73;1.80;;;14.00;99.90;;;;;;4207069;28;20211;-81
2023/07/06 05:01:53;;;;;;;4.00;1.90;;;14.00;99.90;;;;;;4215719;28;20225;-80
2023/07/06 05:03:55;;;;;;;4.13;2.17;;;14.00;99.90;;;;;;4208808;28;20573;-80
2023/07/06 05:06:02;;;;;;;5.97;2.47;;;14.10;99.90;;;;;;4204679;28;20207;-80
2023/07/06 05:08:05;;;;;;;3.27;1.90;;;14.10;99.90;;;;;;4211953;28;20215;-80
2023/07/06 05:10:08;;;;;;;2.77;1.80;;;14.10;99.90;;;;;;4200413;28;20218;-79
2023/07/06 05:12:11;;;;;;;2.90;1.80;;;14.20;99.90;;;;;;4200773;28;20227;-80
2023/07/06 05:14:13;;;;;;;2.90;1.57;;;14.20;99.90;;;;;;4204454;28;20222;-80
2023/07/06 05:16:15;;;;;;;4.90;1.80;;;14.30;99.90;;;;;;4202023;28;20352;-80
2023/07/06 05:18:19;;;;;;;4.50;1.70;;;14.30;99.90;;;;;;4203484;28;20302;-80
2023/07/06 05:20:21;;;;;;;4.57;1.90;;;14.30;99.90;;;;;;4201573;28;20873;-80
2023/07/06 05:22:26;;;;;;;5.77;2.00;;;14.40;99.90;;;;;;4200759;28;20254;-80
2023/07/06 05:24:28;;;;;;;4.43;1.87;;;14.50;99.90;;;;;;4201086;28;20282;-81
2023/07/06 05:26:30;;;;;;;3.10;1.87;;;14.50;99.90;;;;;;4206289;28;20211;-81
2023/07/06 05:28:32;;;;;;;4.37;1.73;;;14.50;99.90;;;;;;4206105;28;20233;-80
2023/07/06 05:30:34;;;;;;;4.67;1.80;;;14.60;99.90;;;;;;4205369;28;20518;-81
2023/07/06 05:32:36;;;;;;;3.53;1.90;;;14.60;99.90;;;;;;4201220;28;20292;-80
2023/07/06 05:34:38;;;;;;;2.77;1.80;;;14.60;99.90;;;;;;4201993;28;20217;-80
2023/07/06 05:36:40;;;;;;;4.17;2.17;;;14.60;99.90;;;;;;4197638;28;20229;-80
2023/07/06 05:38:43;;;;;;;3.93;2.17;;;14.70;99.90;;;;;;4196877;28;20244;-81
2023/07/06 05:40:45;;;;;;;3.33;1.90;;;14.70;99.90;;;;;;4194457;28;20208;-81
2023/07/06 05:42:47;;;;;;;2.40;1.50;;;14.70;99.90;;;;;;4197462;28;20319;-82
2023/07/06 05:44:50;;;;;;;4.17;1.50;;;14.60;99.90;;;;;;4196614;28;20626;-81
2023/07/06 05:46:52;;;;;;;3.33;2.03;;;14.70;99.90;;;;;;4198704;28;20309;-81
2023/07/06 05:48:54;;;;;;;5.40;1.70;;;14.80;99.90;;;;;;4197735;28;20275;-81
2023/07/06 05:50:57;;;;;;;3.83;1.70;;;15.10;99.90;;;;;;4184382;28;20225;-81
2023/07/06 05:53:00;;;;;;;5.23;1.83;;;14.90;99.90;;;;;;4197685;28;20244;-80
2023/07/06 05:55:03;;;;;;;4.80;2.13;;;14.90;99.90;;;;;;4196799;28;20235;-81
2023/07/06 05:57:06;;;;;;;5.87;2.13;;;15.00;99.90;;;;;;4198299;28;20202;-82
2023/07/06 05:59:09;;;;;;;3.90;2.07;;;15.10;99.90;;;;;;4198029;28;20216;-81
2023/07/06 06:01:11;;;;;;;3.43;1.77;;;15.10;99.90;;;;;;4198277;28;20654;-82
2023/07/06 06:03:13;;;;;;;4.07;1.90;;;15.20;99.90;;;;;;4196890;28;20209;-81
2023/07/06 06:05:16;;;;;;;4.53;1.53;;;15.20;99.90;;;;;;4198435;28;20204;-78
2023/07/06 06:07:19;;;;;;;7.20;1.70;;;15.30;99.90;;;;;;4194033;28;20768;-79
2023/07/06 06:09:22;;;;;;;3.43;1.57;;;15.40;99.90;;;;;;4194198;28;20208;-79
2023/07/06 06:11:26;;;;;;;3.60;1.80;;;15.40;99.90;;;;;;4194805;28;20320;-79
2023/07/06 06:13:28;;;;;;;3.80;1.70;;;15.40;99.90;;;;;;4193243;28;20236;-80
2023/07/06 06:15:30;;;;;;;3.83;1.50;;;15.50;99.90;;;;;;4195729;28;20646;-79
2023/07/06 06:17:34;;;;;;;3.97;1.70;;;15.60;99.90;;;;;;4196207;28;20292;-79
2023/07/06 06:19:38;;;;;;;4.33;1.70;;;15.60;99.90;;;;;;4192537;28;20779;-79
2023/07/06 06:21:40;;;;;;;3.57;1.50;;;15.70;99.90;;;;;;4194429;28;20247;-78
2023/07/06 06:23:42;;;;;;;2.87;1.47;;;15.80;99.90;;;;;;4193869;28;20244;-78
2023/07/06 06:25:45;;;;;;;2.23;1.40;;;15.90;99.90;;;;;;4194875;28;20694;-79
2023/07/06 06:27:49;;;;;;;6.60;1.63;;;16.00;99.90;;;;;;4190395;28;20729;-78
2023/07/06 06:29:52;;;;;;;2.83;1.70;;;16.10;99.90;;;;;;4187409;28;20230;-78
2023/07/06 06:31:54;;;;;;;4.97;1.50;;;16.20;99.90;;;;;;4194756;28;20230;-78
2023/07/06 06:33:57;;;;;;;3.50;1.40;;;16.30;99.90;;;;;;4193040;28;20629;-78
2023/07/06 06:36:01;;;;;;;4.73;2.00;;;16.40;99.90;;;;;;4196425;28;20896;-77
2023/07/06 06:38:05;;;;;;;2.93;1.50;;;16.40;99.90;;;;;;4184160;28;20218;-77
2023/07/06 06:40:09;;;;;;;4.80;1.60;;;16.50;99.90;;;;;;4197149;28;20651;-77
2023/07/06 06:42:13;;;;;;;3.10;1.63;;;16.60;99.90;;;;;;4196924;28;20232;-77
2023/07/06 06:44:16;;;;;;;4.13;1.53;;;16.60;99.90;;;;;;4197933;28;20213;-77
2023/07/06 06:46:18;;;;;;;5.70;1.70;;;16.70;99.90;;;;;;4194779;28;20293;-77
2023/07/06 06:48:21;;;;;;;8.60;1.70;;;16.80;99.90;;;;;;4197938;28;20781;-77
2023/07/06 06:50:23;;;;;;;4.50;1.77;;;16.70;99.90;;;;;;4197636;28;20594;-78
2023/07/06 06:52:26;;;;;;;6.00;1.53;;;16.80;99.90;;;;;;4197034;28;20231;-77
2023/07/06 06:54:29;;;;;;;3.50;1.50;;;16.90;99.90;;;;;;4196911;28;20242;-78
2023/07/06 06:56:31;;;;;;;4.63;1.63;;;16.90;99.90;;;;;;4197059;28;20292;-78
2023/07/06 06:58:32;;;;;;;4.73;1.40;;;17.00;99.90;;;;;;4195314;28;20233;-78
2023/07/06 07:00:39;;;;;;;4.60;1.77;;;17.00;99.90;;;;;;4193561;28;20198;-78
2023/07/06 07:02:41;;;;;;;4.07;1.40;;;17.10;99.90;;;;;;4197417;28;20202;-78
2023/07/06 07:04:44;;;;;;;2.23;1.50;;;17.20;99.90;;;;;;4196679;28;20235;-78
2023/07/06 07:06:45;;;;;;;3.13;1.37;;;17.20;99.90;;;;;;4196719;28;20208;-79
2023/07/06 07:08:50;;;;;;;4.03;1.40;;;17.30;99.90;;;;;;4197005;28;20707;-78
2023/07/06 07:10:54;;;;;;;2.23;1.30;;;17.30;99.90;;;;;;4193158;28;20211;-79
2023/07/06 07:12:56;;;;;;;3.37;1.50;;;17.40;99.90;;;;;;4195282;28;20700;-79
2023/07/06 07:14:58;;;;;;;2.67;1.67;;;17.40;99.90;;;;;;4195871;28;20231;-78
2023/07/06 07:17:02;;;;;;;3.57;1.60;;;17.50;99.90;;;;;;4196897;28;20217;-78
2023/07/06 07:19:05;;;;;;;4.23;1.50;;;17.60;99.90;;;;;;4196894;28;20675;-78
2023/07/06 07:21:08;;;;;;;1.93;1.17;;;17.60;99.90;;;;;;4196310;28;20318;-80
2023/07/06 07:23:10;;;;;;;3.23;1.33;;;17.60;99.90;;;;;;4197192;28;20221;-79
2023/07/06 07:25:12;;;;;;;2.40;1.23;;;17.60;99.90;;;;;;4196280;28;20256;-80
2023/07/06 07:27:14;;;;;;;3.07;1.40;;;17.70;99.90;;;;;;4194880;28;20216;-81
2023/07/06 07:29:16;;;;;;;5.07;1.77;;;17.80;99.90;;;;;;4194738;28;20219;-82
2023/07/06 07:31:20;;;;;;;4.77;1.70;;;17.80;99.90;;;;;;4199500;28;20241;-82
2023/07/06 07:33:23;;;;;;;3.17;1.47;;;17.90;99.90;;;;;;4198240;28;20720;-81
2023/07/06 07:35:26;;;;;;;3.63;1.40;;;18.00;99.90;;;;;;4198170;28;20725;-82
2023/07/06 07:37:27;;;;;;;2.37;1.23;;;18.00;99.90;;;;;;4198476;28;20639;-80
2023/07/06 07:39:29;;;;;;;4.50;1.47;;;18.00;99.90;;;;;;4200126;28;20625;-80
2023/07/06 07:41:31;;;;;;;2.53;1.43;;;18.10;99.90;;;;;;4200341;28;20256;-81
2023/07/06 07:43:36;;;;;;;2.27;1.40;;;18.00;99.90;;;;;;4196780;28;20208;-81
2023/07/06 07:45:38;;;;;;;4.00;1.33;;;18.10;99.90;;;;;;4194779;28;20215;-83
2023/07/06 07:47:40;;;;;;;2.70;1.30;;;18.20;99.90;;;;;;4199838;28;20619;-83
2023/07/06 07:49:43;;;;;;;5.20;1.60;;;18.20;99.90;;;;;;4201312;28;20261;-83
2023/07/06 07:51:46;;;;;;;2.07;1.23;;;18.30;99.90;;;;;;4199392;28;20229;-82
2023/07/06 07:53:48;;;;;;;2.67;1.40;;;18.30;99.90;;;;;;4199776;28;20720;-81
2023/07/06 07:55:50;;;;;;;7.33;1.10;;;18.30;99.90;;;;;;4199514;28;20217;-81
2023/07/06 07:57:52;;;;;;;4.37;1.30;;;18.40;99.90;;;;;;4198551;28;20712;-83
2023/07/06 07:59:54;;;;;;;2.67;1.20;;;18.40;99.90;;;;;;4199257;28;20205;-83
2023/07/06 08:01:56;;;;;;;1.97;1.10;;;18.40;99.90;;;;;;4197225;28;20654;-83
2023/07/06 08:03:58;;;;;;;1.80;1.20;;;18.50;99.90;;;;;;4198189;28;20596;-82
2023/07/06 08:06:05;;;;;;;4.30;1.30;;;18.60;99.90;;;;;;4198784;28;20348;-82
2023/07/06 08:08:07;;;;;;;3.57;1.20;;;18.60;99.90;;;;;;4199041;28;20226;-82
2023/07/06 08:10:09;;;;;;;2.20;1.10;;;18.60;99.90;;;;;;4200812;28;20214;-82
2023/07/06 08:12:11;;;;;;;3.23;1.33;;;18.70;99.90;;;;;;4198727;28;20629;-83
2023/07/06 08:14:14;;;;;;;3.57;1.40;;;18.70;99.90;;;;;;4197855;28;20228;-83
2023/07/06 08:16:16;;;;;;;5.10;1.37;;;18.70;99.90;;;;;;4199947;28;20208;-83
2023/07/06 08:18:19;;;;;;;3.30;1.27;;;18.80;99.90;;;;;;4200899;28;20311;-83
2023/07/06 08:20:21;;;;;;;3.83;1.27;;;18.80;99.90;;;;;;4200283;28;20208;-83
2023/07/06 08:22:25;;;;;;;4.33;1.57;;;19.00;99.90;;;;;;4195786;28;20345;-82
2023/07/06 08:24:27;;;;;;;2.20;1.10;;;19.00;99.90;;;;;;4198872;28;20229;-83
2023/07/06 08:26:31;;;;;;;4.43;1.40;;;19.00;99.90;;;;;;4198166;28;20216;-84
2023/07/06 08:28:33;;;;;;;4.53;1.30;;;19.10;99.90;;;;;;4197794;28;20233;-83
2023/07/06 08:30:36;;;;;;;3.27;1.20;;;19.20;99.90;;;;;;4195972;28;20719;-82
2023/07/06 08:32:39;;;;;;;2.23;1.20;;;19.20;99.90;;;;;;4200728;28;20244;-82
2023/07/06 08:34:41;;;;;;;1.77;1.10;;;19.30;99.90;;;;;;4200253;28;20240;-82
2023/07/06 08:36:43;;;;;;;1.60;1.10;;;19.40;99.90;;;;;;4198956;28;20228;-82
2023/07/06 08:38:46;;;;;;;2.23;1.10;;;19.40;99.90;;;;;;4196466;28;20242;-82
2023/07/06 08:40:52;;;;;;;3.13;1.33;;;19.50;99.90;;;;;;4199178;28;20210;-82
2023/07/06 08:42:55;;;;;;;2.70;1.00;;;19.50;99.90;;;;;;4199746;28;20214;-81
2023/07/06 08:44:58;;;;;;;1.40;1.00;;;19.60;99.90;;;;;;4200175;28;20728;-81
2023/07/06 08:47:00;;;;;;;4.40;1.20;;;19.60;99.90;;;;;;4199506;28;20296;-83
2023/07/06 08:49:02;;;;;;;2.50;1.20;;;19.70;99.90;;;;;;4200071;28;20206;-81
2023/07/06 08:51:22;;;;;;;1.23;1.13;;;19.70;99.90;;;;;;4200907;28;20233;-82
2023/07/06 08:53:28;;;;;;;2.70;1.40;;;19.80;98.80;;;;;;4199893;28;20316;-82
2023/07/06 08:55:31;;;;;;;2.10;1.30;;;19.80;97.60;;;;;;4197820;28;20232;-83
2023/07/06 08:57:33;;;;;;;2.97;1.20;;;19.90;97.00;;;;;;4200248;28;20206;-82
2023/07/06 08:59:39;;;;;;;3.30;1.27;;;20.10;96.60;;;;;;4200220;28;20292;-82
2023/07/06 09:01:41;;;;;;;1.60;1.00;;;20.20;95.40;;;;;;4197954;28;20600;-84
2023/07/06 09:03:48;;;;;;;2.00;1.10;;;20.30;95.00;;;;;;4199519;28;20826;-84
2023/07/06 09:05:52;;;;;;;2.40;1.27;;;20.50;92.50;;;;;;4201832;28;20264;-82
2023/07/06 09:07:53;;;;;;;2.10;1.10;;;20.60;85.60;;;;;;4204473;28;20217;-81
2023/07/06 09:09:57;;;;;;;2.83;1.37;;;20.60;82.50;;;;;;4211100;28;20208;-82
2023/07/06 09:12:05;;;;;;;2.00;1.10;;;20.60;86.60;;;;;;4209521;28;20229;-82
2023/07/06 09:14:11;;;;;;;1.43;1.10;;;20.70;86.70;;;;;;4208047;28;20235;-82
2023/07/06 09:16:15;;;;;;;3.20;1.27;;;20.70;76.30;;;;;;4205459;28;20212;-79
2023/07/06 09:18:18;;;;;;;5.83;1.27;;;20.70;78.60;;;;;;4206287;28;20667;-81
2023/07/06 09:20:21;;;;;;;3.03;1.27;;;20.80;71.80;;;;;;4204246;28;20268;-79
2023/07/06 09:22:24;;;;;;;5.53;1.80;;;20.80;68.60;;;;;;4203002;28;20226;-79
2023/07/06 09:24:27;;;;;;;1.97;1.17;;;20.80;69.60;;;;;;4206132;28;20198;-80
2023/07/06 09:26:33;;;;;;;2.23;1.17;;;20.90;67.30;;;;;;4201835;28;20268;-80
2023/07/06 09:28:37;;;;;;;3.23;0.87;;;21.00;61.40;;;;;;4197437;28;20206;-81
2023/07/06 09:30:39;;;;;;;2.57;1.20;;;21.00;61.20;;;;;;4198635;28;20294;-79
2023/07/06 09:32:44;;;;;;;1.47;1.00;;;21.10;62.10;;;;;;4208031;28;20281;-80
2023/07/06 09:34:51;;;;;;;3.93;1.13;;;21.10;61.50;;;;;;4203299;28;20236;-81
2023/07/06 09:36:53;;;;;;;2.97;1.43;;;21.10;61.60;;;;;;4214032;28;20213;-82
2023/07/06 09:39:03;;;;;;;2.40;1.00;;;21.10;57.90;;;;;;4217366;28;20198;-82
2023/07/06 09:41:19;;;;;;;4.30;1.00;;;21.10;58.10;;;;;;4217434;28;20205;-80
2023/07/06 09:43:23;;;;;;;1.93;1.17;;;21.20;56.30;;;;;;4217095;28;20201;-79
2023/07/06 09:45:28;;;;;;;1.90;0.87;;;21.10;55.50;;;;;;4213644;28;20201;-80
2023/07/06 09:47:33;;;;;;;1.67;1.20;;;21.10;53.50;;;;;;4215253;28;20235;-79
2023/07/06 09:49:43;;;;;;;3.47;0.97;;;21.20;53.60;;;;;;4212222;28;20205;-78
2023/07/06 09:51:51;;;;;;;3.77;1.10;;;21.30;53.20;;;;;;4209818;28;20227;-77
2023/07/06 09:53:57;;;;;;;4.00;1.10;;;21.30;52.90;;;;;;4200357;28;20589;-78
2023/07/06 09:55:59;;;;;;;2.63;1.17;;;21.50;52.80;;;;;;4193033;28;20213;-78
2023/07/06 09:58:02;;;;;;;1.40;0.87;;;21.50;50.20;;;;;;4197956;28;20205;-79
2023/07/06 10:00:15;;;;;;;3.60;1.20;;;21.50;47.10;;;;;;4195801;28;20305;-77
2023/07/06 10:02:27;;;;;;;3.20;1.30;;;21.50;47.90;;;;;;4192191;28;20316;-80
2023/07/06 10:04:47;;;;;;;2.60;1.10;;;21.60;49.00;;;;;;4194912;28;20210;-79
2023/07/06 10:07:09;;;;;;;4.27;1.23;;;21.70;48.30;;;;;;4191601;28;20223;-78
2023/07/06 10:09:16;;;;;;;1.80;1.00;;;21.80;49.60;;;;;;4195893;28;20296;-79
2023/07/06 10:11:26;;;;;;;2.00;1.23;;;21.80;49.20;;;;;;4199674;28;20257;-79
2023/07/06 10:13:36;;;;;;;2.37;1.20;;;21.90;49.30;;;;;;4199389;28;20254;-80
2023/07/06 10:15:44;;;;;;;1.70;1.03;;;22.00;47.30;;;;;;4199570;28;20292;-79
2023/07/06 10:17:55;;;;;;;1.87;1.10;;;22.10;48.10;;;;;;4195775;28;20211;-78
2023/07/06 10:20:03;;;;;;;1.60;1.10;;;22.20;48.10;;;;;;4199154;28;20235;-77
2023/07/06 10:22:15;;;;;;;2.37;1.20;;;22.30;48.10;;;;;;4200160;28;20251;-79
2023/07/06 10:24:30;;;;;;;1.33;0.93;;;22.40;48.40;;;;;;4199716;28;20238;-81
2023/07/06 10:26:37;;;;;;;1.80;1.23;;;22.70;49.20;;;;;;4203894;28;20804;-81
2023/07/06 10:28:42;;;;;;;3.17;1.20;;;23.00;47.20;;;;;;4200856;28;20662;-80
2023/07/06 10:30:49;;;;;;;2.27;1.20;;;23.10;45.90;;;;;;4202350;28;20216;-80
2023/07/06 10:32:57;;;;;;;2.87;1.10;;;23.30;45.50;;;;;;4203294;28;20216;-80
2023/07/06 10:35:02;;;;;;;4.17;1.10;;;23.50;45.40;;;;;;4203739;28;20221;-81
2023/07/06 10:37:06;;;;;;;2.03;1.13;;;23.50;45.00;;;;;;4208779;28;20206;-82
2023/07/06 10:39:53;;;;;;;1.77;1.17;;;23.60;46.30;;;;;;4212000;28;20263;-80
2023/07/06 10:42:00;;;;;;;2.73;1.20;;;23.80;45.80;;;;;;4212807;28;20233;-81
2023/07/06 10:44:44;;;;;;;3.73;1.00;;;23.90;43.60;;;;;;4212525;28;20647;-80
2023/07/06 10:46:56;;;;;;;1.80;1.20;;;24.00;43.20;;;;;;4212733;28;20202;-81
2023/07/06 10:49:15;;;;;;;1.77;1.00;;;24.10;43.10;;;;;;4214516;28;20211;-80